Time;durP1;ratioP1;P1;durP2;ratioP2;P2;SDS_P1;SDS_P2;PMS_P1;PMS_P2;Temp;Humidity;BMP_temperature;BMP_pressure;BME280_temperature;BME280_humidity;BME280_pressure;Samples;Min_cycle;Max_cycle;Signal;HPM_P1;HPM_P2
2022/05/22 00:01:55;;;;;;;11.88;3.53;;;;;;;11.06;100.00;101283.00;4963080;28;20062;-73
2022/05/22 00:04:21;;;;;;;15.57;3.15;;;;;;;11.05;100.00;101290.19;4979936;28;20396;-73
2022/05/22 00:06:46;;;;;;;12.88;3.25;;;;;;;11.10;100.00;101281.72;4979369;28;20030;-73
2022/05/22 00:09:12;;;;;;;12.63;3.08;;;;;;;11.08;100.00;101289.06;4980780;28;20054;-73
2022/05/22 00:11:37;;;;;;;16.70;2.73;;;;;;;11.13;100.00;101289.44;4978565;28;20042;-73
2022/05/22 00:14:03;;;;;;;11.65;3.78;;;;;;;11.03;100.00;101277.94;4994371;28;20129;-73
2022/05/22 00:16:36;;;;;;;17.80;3.47;;;;;;;11.08;100.00;101278.38;4978180;28;20042;-73
2022/05/22 00:19:05;;;;;;;15.40;3.42;;;;;;;11.11;100.00;101286.91;4989918;28;20121;-73
2022/05/22 00:21:31;;;;;;;8.63;2.10;;;;;;;11.08;100.00;101284.53;4980339;28;20038;-73
2022/05/22 00:23:56;;;;;;;12.77;3.28;;;;;;;11.13;100.00;101289.44;4980027;28;20096;-73
2022/05/22 00:26:22;;;;;;;13.47;2.93;;;;;;;11.04;100.00;101272.47;4981078;28;20079;-73
2022/05/22 00:28:48;;;;;;;12.15;2.50;;;;;;;11.10;100.00;101265.69;4979181;28;20030;-73
2022/05/22 00:31:13;;;;;;;13.98;2.90;;;;;;;11.10;100.00;101271.88;4962298;28;20042;-73
2022/05/22 00:33:39;;;;;;;6.87;2.30;;;;;;;11.14;100.00;101275.06;4978836;28;20034;-73
2022/05/22 00:36:04;;;;;;;14.70;3.45;;;;;;;11.11;100.00;101262.84;4978849;28;20543;-73
2022/05/22 00:38:30;;;;;;;11.43;2.90;;;;;;;11.04;100.00;101255.59;4978666;28;20034;-73
2022/05/22 00:40:55;;;;;;;13.33;2.57;;;;;;;11.05;100.00;101260.81;4978450;28;20069;-73
2022/05/22 00:43:30;;;;;;;12.53;2.63;;;;;;;11.05;100.00;101265.28;4979300;28;20589;-73
2022/05/22 00:45:56;;;;;;;13.95;2.17;;;;;;;11.10;100.00;101265.69;4973833;28;20296;-73
2022/05/22 00:48:22;;;;;;;19.70;2.78;;;;;;;11.04;100.00;101261.78;4961874;28;20066;-73
2022/05/22 00:50:48;;;;;;;17.35;3.13;;;;;;;10.99;100.00;101256.91;4977985;28;20114;-73
2022/05/22 00:53:17;;;;;;;10.32;2.47;;;;;;;11.07;100.00;101263.31;4979419;28;20595;-73
2022/05/22 00:55:42;;;;;;;;;;;;;;;11.07;100.00;101271.31;4964878;28;20033;-73
2022/05/22 00:58:13;;;;;;;;;;;;;;;11.05;100.00;101265.28;4982717;28;19918;-73
2022/05/22 01:00:40;;;;;;;8.45;3.65;;;;;;;11.08;100.00;101265.00;4980561;28;19929;-73
2022/05/22 01:03:29;;;;;;;9.68;4.22;;;;;;;11.07;100.00;101260.63;4959574;28;20042;-73
2022/05/22 01:06:09;;;;;;;7.50;2.88;;;;;;;10.98;100.00;101270.44;4998343;28;20114;-73
2022/05/22 01:08:39;;;;;;;12.20;3.53;;;;;;;11.01;100.00;101269.28;4983922;28;20479;-73
2022/05/22 01:11:09;;;;;;;9.25;2.30;;;;;;;11.04;100.00;101275.13;4965260;28;20033;-73
2022/05/22 01:13:49;;;;;;;12.52;2.78;;;;;;;11.08;100.00;101273.00;4991841;28;20061;-73
2022/05/22 01:16:14;;;;;;;12.95;3.25;;;;;;;11.06;100.00;101266.97;4965628;28;20492;-73
2022/05/22 01:18:46;;;;;;;14.77;2.60;;;;;;;11.00;100.00;101260.41;4981539;28;20036;-73
2022/05/22 01:21:15;;;;;;;25.80;4.43;;;;;;;10.97;100.00;101253.53;4982732;28;20030;-73
2022/05/22 01:23:40;;;;;;;13.68;2.35;;;;;;;10.94;100.00;101256.50;4981364;28;20030;-73
2022/05/22 01:26:13;;;;;;;9.05;2.50;;;;;;;10.89;100.00;101263.31;4967081;28;20777;-73
2022/05/22 01:28:38;;;;;;;16.40;3.13;;;;;;;10.93;100.00;101272.69;4980906;28;20478;-73
2022/05/22 01:31:10;;;;;;;18.35;3.42;;;;;;;10.92;100.00;101266.50;4980172;28;20029;-73
2022/05/22 01:33:38;;;;;;;14.40;2.90;;;;;;;10.95;100.00;101268.88;4981808;28;20169;-73
2022/05/22 01:36:05;;;;;;;10.35;2.22;;;;;;;10.93;100.00;101268.22;4982055;28;20030;-73
2022/05/22 01:38:31;;;;;;;19.50;3.33;;;;;;;10.95;100.00;101266.19;4997896;28;20506;-73
2022/05/22 01:40:57;;;;;;;15.88;3.67;;;;;;;10.89;100.00;101266.00;4965764;28;20485;-73
2022/05/22 01:43:37;;;;;;;8.35;2.10;;;;;;;10.95;100.00;101271.53;4965104;28;20038;-73
2022/05/22 01:46:08;;;;;;;9.90;2.67;;;;;;;10.98;100.00;101270.44;4981875;28;20088;-73
2022/05/22 01:48:33;;;;;;;15.90;2.17;;;;;;;10.97;100.00;101274.91;4981215;28;20563;-73
2022/05/22 01:50:59;;;;;;;11.57;2.80;;;;;;;10.95;100.00;101268.88;4982086;28;20037;-73
2022/05/22 01:53:28;;;;;;;15.05;3.22;;;;;;;10.94;100.00;101269.88;4981263;28;20062;-73
2022/05/22 01:55:54;;;;;;;15.60;2.80;;;;;;;10.89;100.00;101266.00;4964563;28;20129;-73
2022/05/22 01:58:20;;;;;;;13.52;2.67;;;;;;;10.84;100.00;101273.59;4980557;28;20030;-73
2022/05/22 02:00:45;;;;;;;9.55;2.85;;;;;;;10.91;100.00;101274.66;4964837;28;20049;-73
2022/05/22 02:03:11;;;;;;;8.75;2.42;;;;;;;10.87;100.00;101268.81;4964883;28;20506;-73
2022/05/22 02:05:37;;;;;;;8.83;2.20;;;;;;;10.83;100.00;101267.41;4979888;28;20045;-73
2022/05/22 02:08:24;;;;;;;18.48;2.65;;;;;;;10.81;100.00;101274.75;4980973;28;20030;-73
2022/05/22 02:10:56;;;;;;;;;;;;;;;10.87;100.00;101279.50;4965213;28;20034;-73
2022/05/22 02:13:27;;;;;;;11.18;2.78;;;;;;;10.83;100.00;101277.28;4981332;28;19968;-73
2022/05/22 02:15:53;;;;;;;13.63;3.45;;;;;;;10.79;100.00;101271.38;4975726;28;20069;-73
2022/05/22 02:18:18;;;;;;;11.90;2.80;;;;;;;10.78;100.00;101285.72;4981017;28;20128;-73
2022/05/22 02:20:45;;;;;;;16.27;2.83;;;;;;;10.69;100.00;101276.78;4980201;28;20042;-73
2022/05/22 02:23:11;;;;;;;19.85;4.65;;;;;;;10.73;100.00;101283.50;4964798;28;20049;-73
2022/05/22 02:25:41;;;;;;;9.17;2.53;;;;;;;10.74;100.00;101293.19;4964574;28;20570;-73
2022/05/22 02:28:07;;;;;;;14.95;3.28;;;;;;;10.67;100.00;101300.13;4963225;28;20034;-72
2022/05/22 02:30:38;;;;;;;17.95;3.40;;;;;;;10.73;100.00;101301.38;4964773;28;20046;-73
2022/05/22 02:33:04;;;;;;;10.05;3.20;;;;;;;10.74;100.00;101306.53;4981753;28;20027;-73
2022/05/22 02:35:37;;;;;;;12.25;2.97;;;;;;;10.70;100.00;101298.97;4980417;28;20054;-73
2022/05/22 02:38:10;;;;;;;9.63;2.88;;;;;;;10.69;100.00;101300.00;4959728;28;20027;-73
2022/05/22 02:40:43;;;;;;;19.77;3.13;;;;;;;10.65;100.00;101302.13;4965005;28;20101;-73
2022/05/22 02:43:09;;;;;;;16.58;3.33;;;;;;;10.66;100.00;101300.28;4978867;28;20488;-73
2022/05/22 02:45:37;;;;;;;18.23;3.47;;;;;;;10.66;100.00;101303.81;4980447;28;20034;-73
2022/05/22 02:48:08;;;;;;;15.43;3.05;;;;;;;10.61;100.00;101298.06;4980114;28;20074;-73
2022/05/22 02:50:34;;;;;;;20.65;4.47;;;;;;;10.60;100.00;101300.88;4980502;28;20022;-73
2022/05/22 02:53:09;;;;;;;13.98;3.47;;;;;;;10.69;100.00;101305.31;4991434;28;20030;-73
2022/05/22 02:55:54;;;;;;;14.30;4.43;;;;;;;10.72;100.00;101308.56;4980907;28;20510;-73
2022/05/22 02:58:21;;;;;;;13.75;3.28;;;;;;;10.61;100.00;101299.91;4989682;28;20181;-73
2022/05/22 03:00:46;;;;;;;13.10;3.10;;;;;;;10.49;100.00;101297.44;4981833;28;20034;-73
2022/05/22 03:03:12;;;;;;;17.40;3.80;;;;;;;10.50;100.00;101299.09;4980358;28;20038;-73
2022/05/22 03:08:22;;;;;;;10.05;3.65;;;;;;;10.54;100.00;101292.47;4979814;28;20030;-73
2022/05/22 03:10:47;;;;;;;13.07;3.57;;;;;;;10.53;100.00;101295.28;4962717;28;20022;-73
2022/05/22 03:13:14;;;;;;;20.97;4.57;;;;;;;10.57;100.00;101294.00;4978446;28;20030;-73
2022/05/22 03:15:40;;;;;;;15.25;3.22;;;;;;;10.47;100.00;101299.41;4963876;28;20029;-73
2022/05/22 03:18:06;;;;;;;11.90;4.43;;;;;;;10.51;100.00;101291.94;4962303;28;20038;-73
2022/05/22 03:20:31;;;;;;;16.60;4.97;;;;;;;10.54;100.00;101300.50;4973288;28;20019;-73
2022/05/22 03:23:00;;;;;;;21.50;4.57;;;;;;;10.60;100.00;101298.22;4979025;28;20101;-73
2022/05/22 03:25:26;;;;;;;13.45;3.80;;;;;;;10.59;100.00;101292.03;4979771;28;20041;-73
2022/05/22 03:27:52;;;;;;;15.07;3.95;;;;;;;10.57;100.00;101294.84;4979350;28;20050;-73
2022/05/22 03:30:17;;;;;;;18.00;5.43;;;;;;;10.60;100.00;101293.69;4964015;28;20033;-73
2022/05/22 03:32:48;;;;;;;19.10;3.83;;;;;;;10.63;100.00;101293.44;4979386;28;20034;-73
2022/05/22 03:35:14;;;;;;;17.33;4.17;;;;;;;10.58;100.00;101285.00;4975594;28;20081;-73
2022/05/22 03:37:40;;;;;;;;;;;;;;;10.59;100.00;101292.03;4980228;28;20100;-73
2022/05/22 03:40:08;;;;;;;9.23;3.10;;;;;;;10.60;100.00;101287.53;4979415;28;19918;-73
2022/05/22 03:42:33;;;;;;;14.05;3.72;;;;;;;10.53;100.00;101282.78;4961026;28;20037;-73
2022/05/22 03:44:59;;;;;;;10.07;4.27;;;;;;;10.58;100.00;101285.00;4962585;28;20038;-73
2022/05/22 03:47:24;;;;;;;12.27;3.67;;;;;;;10.62;100.00;101286.38;4963655;28;20378;-73
2022/05/22 03:50:04;;;;;;;18.75;3.80;;;;;;;10.59;100.00;101288.53;4978547;28;20034;-73
2022/05/22 03:52:35;;;;;;;17.67;4.03;;;;;;;10.55;100.00;101283.47;4978787;28;20645;-73
2022/05/22 03:55:07;;;;;;;13.25;3.80;;;;;;;10.56;100.00;101292.34;4963452;28;20162;-73
2022/05/22 03:57:33;;;;;;;13.20;3.50;;;;;;;10.54;100.00;101284.47;4979761;28;20065;-73
2022/05/22 04:00:03;;;;;;;18.80;3.53;;;;;;;10.58;100.00;101285.00;4957457;28;20415;-73
2022/05/22 04:02:30;;;;;;;18.88;3.95;;;;;;;10.56;100.00;101292.34;4980504;28;20042;-73
2022/05/22 04:04:55;;;;;;;15.43;3.67;;;;;;;10.54;100.00;101299.66;4962509;28;20061;-73
2022/05/22 04:07:24;;;;;;;16.15;3.83;;;;;;;10.60;100.00;101303.56;4964358;28;20541;-73
2022/05/22 04:09:52;;;;;;;13.25;3.80;;;;;;;10.59;100.00;101296.53;4978504;28;20208;-73
2022/05/22 04:12:22;;;;;;;18.30;5.40;;;;;;;10.62;100.00;101294.41;4979641;28;20497;-73
2022/05/22 04:14:54;;;;;;;16.25;4.22;;;;;;;10.65;100.00;101290.59;4963982;28;20123;-73
2022/05/22 04:17:19;;;;;;;18.75;4.03;;;;;;;10.69;100.00;101297.31;4979105;28;20030;-73
2022/05/22 04:19:45;;;;;;;13.63;4.93;;;;;;;10.73;100.00;101291.53;4978200;28;20352;-73
2022/05/22 04:22:13;;;;;;;10.95;3.53;;;;;;;10.78;100.00;101296.41;4976909;28;20034;-73
2022/05/22 04:27:28;;;;;;;17.38;5.13;;;;;;;10.84;100.00;101293.16;4989226;28;20034;-73
2022/05/22 04:29:53;;;;;;;20.30;5.05;;;;;;;10.84;100.00;101289.63;4982378;28;20026;-73
2022/05/22 04:32:21;;;;;;;10.63;3.17;;;;;;;10.90;100.00;101289.88;4999138;28;20093;-73
2022/05/22 04:34:52;;;;;;;10.32;3.30;;;;;;;10.92;100.00;101287.88;4981983;28;20024;-73
2022/05/22 04:37:17;;;;;;;10.82;3.92;;;;;;;10.90;100.00;101278.34;4981619;28;20505;-73
2022/05/22 04:39:45;;;;;;;24.95;3.70;;;;;;;11.01;100.00;101286.16;4981355;28;20109;-73
2022/05/22 04:42:12;;;;;;;13.23;3.28;;;;;;;11.01;100.00;101296.84;4969953;28;20092;-73
2022/05/22 04:44:37;;;;;;;14.73;3.87;;;;;;;11.09;100.00;101290.72;4985803;28;20495;-73
2022/05/22 04:47:22;;;;;;;15.50;3.88;;;;;;;11.03;100.00;101283.28;4985211;28;20053;-73
2022/05/22 04:50:17;;;;;;;14.13;3.17;;;;;;;11.12;100.00;101285.91;4975757;28;20026;-73
2022/05/22 04:53:01;;;;;;;9.90;2.45;;;;;;;11.22;100.00;101296.53;4990783;28;20049;-73
2022/05/22 04:55:28;;;;;;;12.05;3.65;;;;;;;11.07;100.00;101287.34;4966312;28;20077;-73
2022/05/22 04:57:54;;;;;;;16.20;3.03;;;;;;;11.22;100.00;101293.84;4981552;28;20034;-73
2022/05/22 05:00:19;;;;;;;21.98;4.75;;;;;;;11.13;100.00;101292.09;4998948;28;20037;-73
2022/05/22 05:02:58;;;;;;;18.30;5.97;;;;;;;11.12;100.00;101290.41;4982018;28;20034;-73
2022/05/22 05:05:24;;;;;;;13.03;3.43;;;;;;;11.13;100.00;101295.59;4991834;28;20029;-72
2022/05/22 05:07:49;;;;;;;14.23;3.85;;;;;;;11.12;100.00;101293.06;4976289;28;20030;-74
2022/05/22 05:10:47;;;;;;;21.98;5.60;;;;;;;11.21;100.00;101284.13;4989454;28;20892;-73
2022/05/22 05:13:27;;;;;;;12.35;3.70;;;;;;;11.31;100.00;101286.75;4989743;28;20040;-73
2022/05/22 05:16:04;;;;;;;21.75;4.75;;;;;;;11.35;100.00;101288.09;4998974;28;20027;-73
2022/05/22 05:18:36;;;;;;;10.85;3.72;;;;;;;11.56;100.00;101283.25;4989387;28;20967;-73
2022/05/22 05:21:06;;;;;;;9.55;3.17;;;;;;;11.70;100.00;101291.72;4970850;28;20593;-73
2022/05/22 05:23:32;;;;;;;14.48;3.13;;;;;;;11.78;100.00;101273.06;4985590;28;20089;-73
2022/05/22 05:26:12;;;;;;;17.33;4.32;;;;;;;11.73;100.00;101265.50;4988298;28;20022;-73
2022/05/22 05:28:38;;;;;;;9.27;3.30;;;;;;;11.70;100.00;101259.63;4972298;28;20121;-75
2022/05/22 05:31:04;;;;;;;16.85;3.80;;;;;;;11.55;100.00;101256.69;4990454;28;20054;-73
2022/05/22 05:33:32;;;;;;;12.95;3.33;;;;;;;11.50;100.00;101264.34;4987436;28;20054;-73
2022/05/22 05:36:15;;;;;;;18.10;3.00;;;;;;;11.71;100.00;101264.81;4994152;28;20038;-73
2022/05/22 05:39:16;;;;;;;18.48;3.78;;;;;;;11.90;100.00;101273.66;4981236;28;20041;-73
2022/05/22 05:41:54;;;;;;;14.60;3.03;;;;;;;11.78;100.00;101257.00;4981174;28;20582;-73
2022/05/22 05:44:21;;;;;;;15.38;3.58;;;;;;;11.82;100.00;101261.88;4965846;28;20034;-73
2022/05/22 05:46:49;;;;;;;12.93;3.08;;;;;;;11.74;100.00;101261.81;4979591;28;20030;-73
2022/05/22 05:49:15;;;;;;;11.00;2.55;;;;;;;11.79;100.00;101272.88;4979833;28;20556;-73
2022/05/22 05:51:43;;;;;;;14.38;3.45;;;;;;;11.84;100.00;101291.97;4979853;28;20034;-73
2022/05/22 05:54:09;;;;;;;10.95;2.70;;;;;;;11.78;100.00;101295.28;4980474;28;20552;-74
2022/05/22 05:57:13;;;;;;;13.60;2.75;;;;;;;11.64;100.00;101277.16;4968555;28;20717;-73
2022/05/22 05:59:42;;;;;;;19.38;4.18;;;;;;;11.57;100.00;101278.78;4980930;28;20041;-74
2022/05/22 06:02:14;;;;;;;13.77;3.28;;;;;;;11.78;100.00;101283.75;4966144;28;20041;-73
2022/05/22 06:04:40;;;;;;;10.77;3.00;;;;;;;11.92;100.00;101280.53;4981326;28;20486;-73
2022/05/22 06:07:06;;;;;;;;;;;;;;;12.05;100.00;101274.75;4988035;28;20060;-73
2022/05/22 06:09:32;;;;;;;;;;;;;;;12.05;100.00;101258.69;4986894;28;20453;-73
2022/05/22 06:11:57;;;;;;;13.37;3.30;;;;;;;12.20;100.00;101251.75;4986791;28;20016;-73
2022/05/22 06:14:35;;;;;;;10.00;2.70;;;;;;;12.22;100.00;101244.41;4986710;28;20518;-73
2022/05/22 06:17:01;;;;;;;11.03;3.20;;;;;;;12.16;100.00;101237.00;5002350;28;20042;-73
2022/05/22 06:22:18;;;;;;;16.83;3.03;;;;;;;12.04;100.00;101232.94;4982543;28;20486;-73
2022/05/22 06:24:47;;;;;;;12.73;2.92;;;;;;;12.17;100.00;101240.50;4986557;28;20057;-73
2022/05/22 06:27:36;;;;;;;13.38;3.85;;;;;;;12.43;100.00;101251.13;4973344;28;20471;-73
2022/05/22 06:30:13;;;;;;;17.92;2.78;;;;;;;12.42;100.00;101241.44;4979811;28;20018;-73
2022/05/22 06:33:17;;;;;;;12.93;2.78;;;;;;;12.67;100.00;101227.13;4985811;28;20037;-73
2022/05/22 06:36:10;;;;;;;17.35;3.88;;;;;;;12.65;100.00;101226.44;4972301;28;20085;-73
2022/05/22 06:41:55;;;;;;;16.27;3.80;;;;;;;12.92;100.00;101207.53;4981149;28;20113;-73
2022/05/22 06:44:42;;;;;;;15.93;3.05;;;;;;;12.82;100.00;101183.59;4985539;28;20038;-73
2022/05/22 06:47:29;;;;;;;13.85;4.32;;;;;;;13.14;100.00;101196.16;4983042;28;20046;-73
2022/05/22 06:50:21;;;;;;;9.32;2.30;;;;;;;13.12;100.00;101208.06;4972618;28;20478;-73
2022/05/22 06:52:57;;;;;;;11.07;2.50;;;;;;;13.35;100.00;101210.94;4970195;28;20038;-73
2022/05/22 06:55:41;;;;;;;12.23;2.17;;;;;;;13.55;100.00;101195.28;4984300;28;20165;-73
2022/05/22 06:58:38;;;;;;;9.95;2.65;;;;;;;13.88;100.00;101201.41;4996090;28;20052;-73
2022/05/22 07:01:22;;;;;;;13.20;2.83;;;;;;;13.82;100.00;101173.44;4981514;28;20254;-73
2022/05/22 07:04:06;;;;;;;8.52;2.38;;;;;;;13.72;100.00;101154.84;4979731;28;20078;-73
2022/05/22 07:06:42;;;;;;;10.32;2.92;;;;;;;13.96;100.00;101162.97;4983047;28;20027;-73
2022/05/22 07:09:10;;;;;;;8.27;2.85;;;;;;;13.73;100.00;101128.84;4979208;28;20034;-74
2022/05/22 07:11:54;;;;;;;11.05;2.53;;;;;;;13.49;100.00;101146.69;4983812;28;20029;-73
2022/05/22 07:14:56;;;;;;;9.50;2.55;;;;;;;13.79;100.00;101152.31;4980122;28;21048;-73
2022/05/22 07:17:42;;;;;;;11.85;2.67;;;;;;;14.22;100.00;101151.94;4985116;28;20038;-73
2022/05/22 07:20:27;;;;;;;12.55;2.33;;;;;;;13.95;100.00;101124.53;4968088;28;20082;-73
2022/05/22 07:23:00;;;;;;;14.05;2.67;;;;;;;14.15;100.00;101146.44;4968897;28;20037;-73
2022/05/22 07:25:32;;;;;;;12.15;3.05;;;;;;;14.17;100.00;101144.41;4982408;28;20042;-73
2022/05/22 07:28:02;;;;;;;9.90;2.50;;;;;;;14.61;100.00;101149.19;4986191;28;20039;-73
2022/05/22 07:30:40;;;;;;;17.23;2.25;;;;;;;14.18;100.00;101057.47;4972230;28;20030;-73
2022/05/22 07:33:24;;;;;;;6.93;1.63;;;;;;;14.59;100.00;101108.25;4984763;28;20100;-73
2022/05/22 07:36:22;;;;;;;11.13;2.30;;;;;;;15.08;100.00;101062.09;4976570;28;20044;-73
2022/05/22 07:38:53;;;;;;;9.20;2.03;;;;;;;16.45;100.00;101077.63;4986384;28;20050;-73
2022/05/22 07:41:19;;;;;;;5.83;1.77;;;;;;;17.13;100.00;100999.75;4982409;28;20082;-74
2022/05/22 07:44:03;;;;;;;11.63;2.55;;;;;;;17.41;100.00;100918.72;4978239;28;20135;-74
2022/05/22 07:47:04;;;;;;;6.25;1.67;;;;;;;17.87;100.00;100876.66;4982103;28;20069;-74
2022/05/22 07:53:03;;;;;;;14.82;3.22;;;;;;;16.59;100.00;100849.47;4988648;28;20064;-74
2022/05/22 07:55:29;;;;;;;11.48;2.67;;;;;;;16.51;100.00;100833.50;4984950;28;20039;-74
2022/05/22 07:58:20;;;;;;;8.27;1.58;;;;;;;17.50;99.99;100857.28;4993732;28;20072;-74
2022/05/22 08:01:04;;;;;;;;;;;;;;;17.02;100.00;100898.66;4978461;28;20189;-74
2022/05/22 08:03:48;;;;;;;10.18;1.83;;;;;;;16.86;100.00;100824.34;4986221;28;19980;-74
2022/05/22 08:06:34;;;;;;;9.13;2.00;;;;;;;17.75;100.00;100949.31;4989016;28;20042;-74
2022/05/22 08:09:07;;;;;;;8.95;2.28;;;;;;;17.25;98.51;100828.16;4988808;28;20045;-74
2022/05/22 08:11:33;;;;;;;7.78;2.03;;;;;;;17.19;98.76;100829.00;4988361;28;20057;-74
2022/05/22 08:14:04;;;;;;;8.07;1.80;;;;;;;16.47;100.00;100841.13;4988619;28;20117;-74
2022/05/22 08:16:38;;;;;;;6.57;1.70;;;;;;;17.29;100.00;100899.56;4969807;28;20042;-73
2022/05/22 08:19:13;;;;;;;9.55;1.80;;;;;;;17.56;91.17;100759.28;4988602;28;20033;-73
2022/05/22 08:22:08;;;;;;;6.45;1.90;;;;;;;17.67;93.27;100846.91;4944319;28;20137;-74
2022/05/22 08:24:56;;;;;;;6.28;1.50;;;;;;;18.44;88.37;100845.41;4980155;28;20037;-74
2022/05/22 08:27:27;;;;;;;7.40;3.22;;;;;;;19.09;79.00;100703.88;4966813;28;20443;-74
2022/05/22 08:29:54;;;;;;;6.30;1.40;;;;;;;19.14;75.71;100653.44;4987398;28;20053;-74
2022/05/22 08:32:21;;;;;;;9.27;1.70;;;;;;;17.79;77.98;100552.78;4962576;28;20030;-75
2022/05/22 08:34:46;;;;;;;11.30;1.60;;;;;;;17.55;79.89;100592.97;4987207;28;20041;-74
2022/05/22 08:37:12;;;;;;;5.37;1.50;;;;;;;16.95;82.35;100594.91;4975792;28;20085;-72
2022/05/22 08:39:37;;;;;;;5.87;1.50;;;;;;;16.98;91.24;100816.50;4980421;28;20096;-72
2022/05/22 08:42:09;;;;;;;15.77;2.60;;;;;;;17.06;89.34;100796.59;4986538;28;20348;-74
2022/05/22 08:44:34;;;;;;;5.15;1.17;;;;;;;16.93;85.50;100699.47;4985396;28;20042;-73
2022/05/22 08:47:21;;;;;;;9.30;1.70;;;;;;;17.45;87.25;100827.38;4970734;28;20029;-73
2022/05/22 08:49:49;;;;;;;5.43;1.35;;;;;;;17.59;87.27;100844.44;4994934;28;20039;-73
2022/05/22 08:52:19;;;;;;;4.35;1.50;;;;;;;18.76;84.07;100921.25;4988682;28;20029;-74
2022/05/22 08:54:57;;;;;;;9.07;1.65;;;;;;;19.94;74.17;100809.00;4977596;28;20468;-73
2022/05/22 09:00:12;;;;;;;3.50;1.55;;;;;;;20.11;65.93;100616.81;4976554;28;20030;-74
2022/05/22 09:02:45;;;;;;;;;;;;;;;20.81;65.58;100738.34;4976619;28;20046;-74
2022/05/22 09:05:21;;;;;;;6.20;1.20;;;;;;;20.97;63.30;100677.16;4978421;28;19917;-74
2022/05/22 09:08:06;;;;;;;3.97;1.27;;;;;;;18.96;65.39;100439.69;4996347;28;20049;-73
2022/05/22 09:10:39;;;;;;;4.15;1.10;;;;;;;17.98;83.35;100849.03;4983453;28;20026;-74
2022/05/22 09:13:16;;;;;;;6.72;1.42;;;;;;;19.67;74.76;100868.78;5003464;28;20034;-74
2022/05/22 09:15:45;;;;;;;4.65;1.10;;;;;;;19.64;68.06;100695.88;4981305;28;20034;-73
2022/05/22 09:19:06;;;;;;;9.40;2.35;;;;;;;18.64;69.50;100566.03;4987997;28;20022;-74
2022/05/22 09:21:46;;;;;;;5.38;1.30;;;;;;;19.81;68.64;100737.63;4930620;29;20043;-75
2022/05/22 09:24:25;;;;;;;6.18;1.20;;;;;;;19.30;69.07;100657.47;4978079;28;20049;-73
2022/05/22 09:27:00;;;;;;;5.28;1.48;;;;;;;19.24;71.85;100739.53;4964726;28;20034;-74
2022/05/22 09:29:47;;;;;;;6.07;1.48;;;;;;;18.78;74.41;100743.41;4982627;28;20046;-75
2022/05/22 09:32:33;;;;;;;5.43;1.20;;;;;;;19.10;78.34;100862.47;4979068;28;20033;-74
2022/05/22 09:34:58;;;;;;;7.43;1.88;;;;;;;18.09;75.51;100655.75;5002682;28;20054;-75
2022/05/22 09:37:45;;;;;;;12.87;1.37;;;;;;;18.19;79.64;100790.38;4982853;28;20128;-75
2022/05/22 09:40:23;;;;;;;5.13;1.40;;;;;;;18.05;77.46;100704.00;4980150;28;20153;-75
2022/05/22 09:43:07;;;;;;;9.98;1.60;;;;;;;17.44;77.65;100628.69;4980716;28;20030;-74
2022/05/22 09:46:03;;;;;;;5.35;1.50;;;;;;;19.09;73.32;100795.88;4983795;28;20041;-74
2022/05/22 09:48:57;;;;;;;9.77;1.13;;;;;;;19.61;65.89;100640.28;4982004;28;20038;-74
2022/05/22 09:51:30;;;;;;;10.38;2.47;;;;;;;20.56;67.63;100815.25;4980609;28;20494;-74
2022/05/22 09:54:14;;;;;;;5.50;1.20;;;;;;;19.59;65.77;100590.13;4981808;28;20097;-74
2022/05/22 09:57:07;;;;;;;4.97;1.13;;;;;;;19.56;67.38;100644.72;4983688;28;20039;-74
2022/05/22 09:59:42;;;;;;;8.93;1.83;;;;;;;19.30;67.30;100616.06;4982333;28;20495;-74
2022/05/22 10:02:31;;;;;;;5.22;1.50;;;;;;;19.70;66.30;100676.06;4985533;28;20069;-74
2022/05/22 10:05:09;;;;;;;9.60;1.35;;;;;;;18.89;67.15;100549.81;4996468;28;20042;-73
2022/05/22 10:07:58;;;;;;;6.47;1.73;;;;;;;20.29;63.90;100686.44;4986026;28;20035;-74
2022/05/22 10:10:52;;;;;;;6.68;1.30;;;;;;;20.19;62.59;100603.78;4978474;28;20035;-74
2022/05/22 10:13:31;;;;;;;5.95;1.67;;;;;;;19.76;65.50;100664.34;4960667;28;20512;-75
2022/05/22 10:16:25;;;;;;;6.90;1.20;;;;;;;20.20;65.77;100727.41;4985772;28;20068;-73
2022/05/22 10:19:09;;;;;;;5.95;1.55;;;;;;;19.02;64.68;100465.03;4964678;28;20522;-74
2022/05/22 10:22:01;;;;;;;4.90;1.23;;;;;;;19.79;68.17;100755.97;4983043;28;20040;-74
2022/05/22 10:25:04;;;;;;;7.18;1.80;;;;;;;20.42;59.30;100548.81;4977461;28;20045;-72
2022/05/22 10:27:57;;;;;;;12.07;2.08;;;;;;;21.47;56.69;100589.88;4978443;28;20389;-75
2022/05/22 10:30:38;;;;;;;4.97;0.95;;;;;;;20.34;55.45;100302.44;4981912;28;20501;-75
2022/05/22 10:33:13;;;;;;;4.05;1.15;;;;;;;19.87;59.18;100461.47;4979649;28;20487;-75
2022/05/22 10:35:50;;;;;;;5.82;0.85;;;;;;;20.63;58.38;100562.94;4973812;28;20306;-74
2022/05/22 10:38:40;;;;;;;4.85;1.60;;;;;;;21.13;53.47;100366.22;4980450;28;20038;-75
2022/05/22 10:44:29;;;;;;;7.30;1.50;;;;;;;21.01;52.76;100255.00;4962518;28;20524;-74
2022/05/22 10:47:02;;;;;;;3.50;0.80;;;;;;;21.20;53.68;100394.03;4987281;28;20797;-75
2022/05/22 10:49:40;;;;;;;3.22;0.90;;;;;;;20.71;52.33;100226.22;4979297;28;20509;-75
2022/05/22 10:52:08;;;;;;;8.30;1.45;;;;;;;21.43;53.56;100470.03;4984096;28;20030;-75
2022/05/22 10:54:53;;;;;;;7.30;1.45;;;;;;;20.90;52.39;100226.84;4985983;28;20106;-74
2022/05/22 10:57:28;;;;;;;5.32;1.42;;;;;;;21.78;52.16;100444.59;4984113;28;20042;-75
2022/05/22 10:59:56;;;;;;;3.88;1.15;;;;;;;20.96;50.46;100146.38;4964867;28;20150;-75
2022/05/22 11:02:24;;;;;;;3.83;0.98;;;;;;;21.68;51.30;100360.19;4981747;28;20554;-74
2022/05/22 11:04:52;;;;;;;5.25;1.75;;;;;;;20.68;51.91;100194.16;4964098;28;20034;-75
2022/05/22 11:07:42;;;;;;;2.80;1.13;;;;;;;22.51;52.24;100572.59;4971105;28;20035;-74
2022/05/22 11:10:22;;;;;;;2.47;0.88;;;;;;;22.58;52.22;100543.34;4971700;28;20046;-73
2022/05/22 11:13:01;;;;;;;11.45;1.67;;;;;;;22.09;50.05;100310.03;4979603;28;20045;-75
2022/05/22 11:15:29;;;;;;;4.22;0.95;;;;;;;22.49;51.88;100493.13;4972613;28;20039;-75
2022/05/22 11:18:18;;;;;;;5.53;1.83;;;;;;;21.86;50.42;100229.53;4975234;28;20105;-74
2022/05/22 11:20:50;;;;;;;6.05;1.20;;;;;;;22.32;51.10;100406.94;4988433;28;20381;-74
2022/05/22 11:23:31;;;;;;;8.30;2.20;;;;;;;23.01;49.53;100456.63;4971098;28;20038;-75
2022/05/22 11:26:25;;;;;;;3.83;1.50;;;;;;;22.71;50.25;100392.53;4973085;28;20049;-74
2022/05/22 11:29:04;;;;;;;3.60;1.05;;;;;;;22.07;51.16;100346.69;4973006;28;20600;-74
2022/05/22 11:31:51;;;;;;;2.63;1.20;;;;;;;22.32;49.57;100325.34;4986295;28;20581;-75
2022/05/22 11:34:43;;;;;;;5.22;0.90;;;;;;;23.20;47.92;100367.28;4981041;28;20038;-73
2022/05/22 11:37:27;;;;;;;5.68;1.40;;;;;;;22.57;48.16;100272.38;4977088;28;20066;-75
2022/05/22 11:40:29;;;;;;;3.15;1.45;;;;;;;22.18;48.10;100177.22;4987935;28;20125;-74
2022/05/22 11:43:10;;;;;;;7.05;1.25;;;;;;;22.89;49.83;100464.88;4973513;28;20038;-74
2022/05/22 11:45:50;;;;;;;5.82;1.42;;;;;;;23.44;49.65;100521.22;4971128;28;20101;-75
2022/05/22 11:48:29;;;;;;;9.32;1.90;;;;;;;22.74;53.43;100544.41;4976553;28;20512;-75
2022/05/22 11:51:23;;;;;;;5.43;1.83;;;;;;;21.07;57.64;100382.41;4973496;28;20084;-74
2022/05/22 11:53:57;;;;;;;7.25;2.05;;;;;;;20.59;61.65;100502.88;4987924;28;20134;-75
2022/05/22 11:56:56;;;;;;;3.90;1.45;;;;;;;20.91;64.48;100678.06;4971367;28;20062;-74
2022/05/22 12:00:01;;;;;;;9.18;1.92;;;;;;;20.85;64.00;100626.41;4971701;28;20034;-73
2022/05/22 12:02:36;;;;;;;5.93;1.40;;;;;;;20.16;66.87;100596.13;4976413;28;20157;-74
2022/05/22 12:05:22;;;;;;;6.63;1.95;;;;;;;20.62;66.99;100694.97;4970031;28;20753;-72
2022/05/22 12:08:04;;;;;;;5.55;1.98;;;;;;;20.49;66.34;100632.78;4971333;28;20082;-74
2022/05/22 12:10:33;;;;;;;5.97;1.48;;;;;;;22.01;62.14;100786.16;4969889;28;20039;-74
2022/05/22 12:13:19;;;;;;;5.15;1.77;;;;;;;23.01;55.67;100686.13;4967125;28;20561;-74